Tiempo atmosférico en la estación meteorológica de Xinzo De Limia, Ourense (600 m.)



Fecha
DESCASC
Temp. máxima en grados centígrados (hora)
DESCASC
Temp. mínima en grados centígrados (hora)
DESCASC
Temp. media en grados centígrados
DESCASC
Racha de viento máxima en m/sg (hora)
DESCASC
Velocidad máxima media en intervalos de 10 minutos(hora)
DESCASC
Precipitaciones diarias en mm
DESCASC
Precipitaciones de 00:00 a 06:00 en mm
DESCASC
Precipitaciones de 06:00 a 12:00 en mm
DESCASC
Precipitaciones de 12:00 a 18:00 en mm
DESCASC
Precipitaciones de 18:00 a 24:00 en mm
DESCASC
20-10-2019 12.3 (15:00) 5.1 (22:50) 8.7 9.72 (16:40) 5.28 (00:10) 2.4 1.8 0.1 0.5 0
19-10-2019 10.7 (00:20) 6.1 (23:50) 8.4 10.28 (23:59) 6.11 (22:00) 36.7 1.6 13.5 18.5 3.1
18-10-2019 15.1 (16:30) 8.3 (04:10) 11.7 6.67 (16:00) 2.5 (15:20) 0.5 0 0 0 0.5
17-10-2019 18.5 (15:30) 10.1 (00:00) 14.3 7.5 (16:20) 3.89 (04:00) 7.7 6.6 0.1 0 1
16-10-2019 15.8 (16:00) 10.6 (00:00) 13.2 12.5 (13:30) 5.83 (13:00) 14.5 0 0 0.1 14.4
15-10-2019 12.1 (16:20) 4.5 (00:00) 8.3 8.61 (14:00) 3.33 (14:00) 0.1 0 0 0.1 0
14-10-2019 13.1 (00:20) 4.5 (00:00) 8.8 11.11 (19:10) 5.56 (14:30) 20.4 12.6 4.4 2.7 0.7
13-10-2019 15.3 (15:20) 12.2 (00:00) 13.8 10.83 (04:40) 6.39 (04:40) 20.8 0 8.9 2.8 9.1
12-10-2019 23.9 (15:30) 8.8 (00:00) 16.3 11.39 (16:00) 5.56 (14:00) 0 0 0 0 0
10-10-2019 24.3 (17:40) 2 (00:00) 13.1 6.39 (13:40) 3.89 (13:40) 0 0 0 0 0
09-10-2019 17.2 (16:40) 5.9 (00:00) 11.6 8.33 (16:50) 5.28 (14:40) 0 0 0 0 0
08-10-2019 22.8 (16:10) 5.5 (00:00) 14.1 7.5 (22:50) 4.17 (20:40) 0 0 0 0 0
07-10-2019 26.2 (15:30) 2 (00:00) 14.1 5.83 (17:20) 3.61 (16:10) 0 0 0 0 0
06-10-2019 23.1 (15:10) 3.9 (00:00) 13.5 6.39 (16:30) 3.61 (16:30) 0 0 0 0 0
05-10-2019 20.7 (16:30) 6 (02:00) 13.4 7.5 (17:20) 4.72 (17:20) 0 0 0 0 0
04-10-2019 21.3 (15:10) 8.4 (00:00) 14.8 7.22 (15:50) 5.28 (15:50) 0.4 0.3 0.1 0 0
03-10-2019 22.9 (16:50) 0.1 (00:00) 11.5 6.39 (17:20) 4.17 (17:20) 0.6 0 0 0 0.6
02-10-2019 18.7 (15:40) 7.6 (00:00) 13.2 15 (17:50) 4.17 (12:20) 0 0 0 0 0
01-10-2019 21.1 (15:10) 10.6 (00:00) 15.9 9.44 (13:30) 5.28 (18:20) 0 0 0 0 0
30-09-2019 26.7 (16:40) 14.1 (00:00) 20.4 8.61 (19:40) 4.44 (18:40) 0 0 0 0 0
29-09-2019 23.4 (15:30) 2 (00:00) 12.7 10 (17:40) 5 (17:40) 0.4 0 0 0 0.4
28-09-2019 26 (17:00) 5.8 (00:00) 15.9 5.83 (14:00) 3.33 (14:10) 0 0 0 0 0
27-09-2019 18.4 (18:40) 6.7 (00:00) 12.5 8.33 (14:10) 4.17 (13:20) 0.8 0 0 0.7 0.1
26-09-2019 23.1 (16:30) 5.9 (00:00) 14.5 5.56 (17:50) 3.33 (17:10) 0 0 0 0 0
25-09-2019 19.1 (15:00) 9.4 (00:00) 14.3 6.11 (13:50) 3.61 (14:10) 0 0 0 0 0
24-09-2019 20.8 (13:50) 9.9 (00:00) 15.3 8.89 (13:00) 4.44 (18:30) 0.5 0.1 0.3 0.1 0
23-09-2019 19.6 (16:00) 5.9 (00:00) 12.8 7.78 (17:20) 3.89 (17:20) 0 0 0 0 0
22-09-2019 20 (15:40) 6.8 (00:00) 13.4 9.44 (17:50) 4.44 (17:50) 0.1 0 0.1 0 0

Gráficas

Temp. máximas Temp. mínimas Temp. medias Precipitaciones Rachas de viento máximas Velocidades máximas media en intervalos de 10 minutos

Datos horarios

Fecha y hora oficial Temperatura (ºC) Velocidad del viento (km/h) Dirección del viento Racha (km/h) Dirección de racha Precipitación (mm) Presión (hPa) Tendencia (hPa) Humedad (%)
2019-10-21 23:00:00 3.1 0 Calma 5 Sudeste 0 -- -- 87
2019-10-21 22:00:00 4.3 0 Calma 7 Sudoeste 0 -- -- 84
2019-10-21 21:00:00 6.1 0 Calma 10 Nordeste 0 -- -- 78
2019-10-21 20:00:00 7.8 7 Nordeste 10 Nordeste 0 -- -- 75
2019-10-21 19:00:00 8.9 4 Sur 10 Este 0 -- -- 68
2019-10-21 18:00:00 9.6 6 Noroeste 13 Noroeste 0 -- -- 67
2019-10-21 17:00:00 10 6 Sur 14 Sur 0 -- -- 63
2019-10-21 16:00:00 11.8 4 Sudoeste 11 Sur 0 -- -- 60
2019-10-21 15:00:00 12.1 0 Calma 9 Este 0 -- -- 65
2019-10-21 14:00:00 10.3 2 Noroeste 14 Nordeste 0 -- -- 81
2019-10-21 13:00:00 9.2 3 Norte 10 Noroeste 0 -- -- 92
2019-10-21 12:00:00 7 0 Calma 9 Noroeste 0 -- -- 93
2019-10-21 11:00:00 6.1 0 Calma 6 Oeste 0 -- -- 93
2019-10-21 10:00:00 5.5 0 Calma 6 Noroeste 0 -- -- 93
2019-10-21 09:00:00 5.3 4 Norte 6 Norte 0 -- -- 93
2019-10-21 08:00:00 5.4 2 Noroeste 8 Este 0 -- -- 93
2019-10-21 07:00:00 4.8 0 Calma 3 Nordeste 0 -- -- 93
2019-10-21 06:00:00 5.3 3 Noroeste 8 Noroeste 0 -- -- 93
2019-10-21 05:00:00 5.9 0 Calma 4 Sudoeste 0 -- -- 93
2019-10-21 04:00:00 5.7 0 Calma 6 Noroeste 0 -- -- 92
2019-10-21 03:00:00 4.8 0 Calma -- -- 0 -- -- 92
2019-10-21 02:00:00 5.1 0 Calma 4 Oeste 0 -- -- 92
2019-10-21 01:00:00 4.8 0 Calma 4 Oeste 0 -- -- 91
2019-10-21 00:00:00 5.6 0 Calma 5 Oeste 0 -- -- 90
2019-10-20 23:00:00 5.3 0 Calma 5 Nordeste 0 -- -- 89
2019-10-20 22:00:00 6.4 2 Nordeste 8 Noroeste 0 -- -- 87
2019-10-20 21:00:00 6.8 3 Noroeste 7 Nordeste 0 -- -- 84
2019-10-20 20:00:00 7.3 5 Nordeste 13 Nordeste 0 -- -- 82
2019-10-20 19:00:00 8.4 5 Noroeste 13 Noroeste 0 -- -- 81
2019-10-20 18:00:00 8.7 6 Oeste 22 Noroeste 0 -- -- 81
2019-10-20 17:00:00 8.9 12 Oeste 35 Noroeste 0.1 -- -- 79
2019-10-20 16:00:00 9.7 11 Noroeste 31 Noroeste 0.4 -- -- 79
2019-10-20 15:00:00 11.3 14 Noroeste 32 Noroeste 0 -- -- 65
2019-10-20 14:00:00 10.5 13 Norte 28 Noroeste 0 -- -- 73
2019-10-20 13:00:00 9.7 12 Norte 26 Noroeste 0 -- -- 81
2019-10-20 12:00:00 9.2 16 Noroeste 23 Noroeste 0 -- -- 88
2019-10-20 11:00:00 7.3 9 Noroeste 19 Noroeste 0 -- -- 93
2019-10-20 10:00:00 6.6 9 Noroeste 16 Noroeste 0 -- -- 93
2019-10-20 09:00:00 6.3 7 Noroeste 16 Noroeste 0 -- -- 93
2019-10-20 08:00:00 6.3 9 Noroeste 20 Noroeste 0.1 -- -- 93
2019-10-20 07:00:00 6.3 9 Noroeste 16 Noroeste 0 -- -- 93
2019-10-20 06:00:00 6 8 Oeste 14 Noroeste 0 -- -- 93
2019-10-20 05:00:00 5.7 9 Noroeste 16 Noroeste 0 -- -- 93
2019-10-20 04:00:00 5.5 12 Noroeste 19 Norte 0.4 -- -- 93
2019-10-20 03:00:00 5.5 7 Noroeste 24 Norte 0.2 -- -- 93
2019-10-20 02:00:00 5.6 13 Norte 28 Norte 0.3 -- -- 93
2019-10-20 01:00:00 5.9 14 Noroeste 31 Norte 0.9 -- -- 93
2019-10-20 00:00:00 6.2 19 Noroeste 37 Norte 1.2 -- -- 93
2019-10-19 23:00:00 6.6 16 Noroeste 34 Noroeste 0.6 -- -- 93
2019-10-19 22:00:00 6.9 22 Norte 35 Norte 1.2 -- -- 93
2019-10-19 21:00:00 7.7 8 Oeste 18 Noroeste 0.1 -- -- 93
2019-10-19 20:00:00 7.8 10 Noroeste 18 Noroeste 0 -- -- 93
2019-10-19 19:00:00 8.4 10 Noroeste 19 Noroeste 0 -- -- 93
2019-10-19 18:00:00 8.7 8 Noroeste 15 Noroeste 0.1 -- -- 93
2019-10-19 17:00:00 8.2 2 Sudoeste 6 Sur 0.4 -- -- 93
2019-10-19 16:00:00 7.6 4 Nordeste 21 Norte 1.8 -- -- 93
2019-10-19 15:00:00 7 10 Nordeste 28 Nordeste 7.6 -- -- 93
2019-10-19 14:00:00 8.6 6 Norte 12 Norte 6.1 -- -- 93
2019-10-19 13:00:00 9.5 6 Nordeste 10 Nordeste 2.5 -- -- 93
2019-10-19 12:00:00 10.5 0 Calma 14 Sudeste 2.6 -- -- 93
2019-10-19 11:00:00 10.4 0 Calma 4 Oeste 2.2 -- -- 93
2019-10-19 10:00:00 10.3 0 Calma 9 Oeste 2.7 -- -- 93
2019-10-19 09:00:00 10.3 0 Calma 12 Sudoeste 0.7 -- -- 92
2019-10-19 08:00:00 10.3 5 Sudoeste 15 Sur 2 -- -- 92
2019-10-19 07:00:00 10.2 2 Este 5 Este 3.3 -- -- 92
2019-10-19 06:00:00 10.3 0 Calma 6 Este 0.5 -- -- 92
2019-10-19 05:00:00 10.4 2 Este 5 Este 0.1 -- -- 92
2019-10-19 04:00:00 10.6 3 Oeste 14 Sudeste 0.3 -- -- 91
2019-10-19 03:00:00 10.5 3 Sur 11 Sur 0.2 -- -- 91
2019-10-19 02:00:00 10.4 0 Calma 8 Sudeste 0.4 -- -- 90
2019-10-19 01:00:00 10.5 5 Sudeste 14 Sudeste 0.1 -- -- 89
2019-10-19 00:00:00 10.3 4 Sudeste 13 Sudeste 0.4 -- -- 88
2019-10-18 23:00:00 10.9 3 Oeste 15 Sur 0 -- -- 87
2019-10-18 22:00:00 10.6 9 Sur 17 Sur 0.1 -- -- 86
2019-10-18 21:00:00 11 3 Sudoeste 15 Sudoeste 0 -- -- 84
2019-10-18 20:00:00 11.5 4 Sur 19 Sudoeste 0 -- -- 82
2019-10-18 19:00:00 12.8 5 Sudoeste 17 Sudoeste 0 -- -- 76
2019-10-18 18:00:00 13.4 7 Sudoeste 22 Sudoeste 0 -- -- 73
2019-10-18 17:00:00 14.3 8 Sudoeste 23 Oeste 0 -- -- 67
2019-10-18 16:00:00 14.2 9 Sudoeste 24 Oeste 0 -- -- 69
2019-10-18 15:00:00 14.3 8 Oeste 23 Oeste 0 -- -- 75
2019-10-18 14:00:00 12.9 6 Sudoeste 18 Oeste 0 -- -- 79
2019-10-18 13:00:00 12.1 8 Sudoeste 20 Sudoeste 0 -- -- 82
2019-10-18 12:00:00 11.9 5 Sudoeste 14 Sudoeste 0 -- -- 90
2019-10-18 11:00:00 10.6 4 Sudoeste 10 Sudoeste 0 -- -- 91
2019-10-18 10:00:00 9.5 0 Calma 8 Sur 0 -- -- 91
2019-10-18 09:00:00 8.6 0 Calma 7 Sur 0 -- -- 91
2019-10-18 08:00:00 8.8 3 Sur 8 Sudoeste 0 -- -- 90
2019-10-18 07:00:00 9.2 3 Sur 9 Sur 0 -- -- 90
2019-10-18 06:00:00 8.9 2 Noroeste 7 Oeste 0 -- -- 90
2019-10-18 05:00:00 8.8 0 Calma 5 Oeste 0 -- -- 90
2019-10-18 04:00:00 8.4 0 Calma 6 Oeste 0 -- -- 90
2019-10-18 03:00:00 9.1 2 Oeste 12 Noroeste 0 -- -- 90
2019-10-18 02:00:00 9.8 8 Noroeste 12 Noroeste 0 -- -- 91
2019-10-18 01:00:00 9.9 0 Calma 9 Norte 0 -- -- 91
2019-10-18 00:00:00 10.2 6 Noroeste 14 Norte 0 -- -- 92
2019-10-17 23:00:00 10.6 3 Norte 15 Norte 0.2 -- -- 91
2019-10-17 22:00:00 11.5 8 Nordeste 13 Nordeste 0.4 -- -- 90
2019-10-17 21:00:00 12.7 4 Noroeste 13 Noroeste 0.4 -- -- 88
2019-10-17 20:00:00 14.2 3 Oeste 14 Oeste 0 -- -- 83
2019-10-17 19:00:00 14.9 8 Oeste 19 Oeste 0 -- -- 79
2019-10-17 18:00:00 16.1 6 Oeste 22 Oeste 0 -- -- 71
2019-10-17 17:00:00 17.3 11 Oeste 27 Oeste 0 -- -- 65
2019-10-17 16:00:00 17.2 11 Oeste 27 Oeste 0 -- -- 61
2019-10-17 15:00:00 17.7 8 Sudoeste 24 Sudoeste 0 -- -- 58
2019-10-17 14:00:00 17.1 9 Sudoeste 24 Sudoeste 0 -- -- 61
2019-10-17 13:00:00 16.1 8 Sudoeste 22 Sudoeste 0 -- -- 73
2019-10-17 12:00:00 13.4 7 Sudoeste 19 Sudoeste 0 -- -- 93
2019-10-17 11:00:00 12.5 5 Noroeste 27 Oeste 0 -- -- 93
2019-10-17 10:00:00 12.3 0 Calma 7 Sudoeste 0.1 -- -- 93
2019-10-17 09:00:00 11.1 0 Calma 11 Oeste 0 -- -- 93
2019-10-17 08:00:00 12 3 Sudoeste 18 Sudoeste 0 -- -- 93
2019-10-17 07:00:00 12.2 4 Sudoeste 15 Sudoeste 0 -- -- 93
2019-10-17 06:00:00 11.9 4 Sur 12 Sur 1.1 -- -- 93
2019-10-17 05:00:00 11.5 5 Sudeste 22 Este 0.7 -- -- 93
2019-10-17 04:00:00 11.4 14 Sudeste 20 Sudeste 0.3 -- -- 93
2019-10-17 03:00:00 11.3 12 Sudeste 24 Sudeste 0.6 -- -- 92
2019-10-17 02:00:00 11.2 12 Sudeste 24 Sudeste 0.7 -- -- 92
2019-10-17 01:00:00 11.1 13 Sudeste 23 Sudeste 3.2 -- -- 92
2019-10-17 00:00:00 11.2 10 Sudeste 23 Sudeste 3.7 -- -- 91
2019-10-16 23:00:00 11.4 10 Sudeste 19 Sudeste 3.9 -- -- 90
2019-10-16 22:00:00 11.6 10 Sudeste 21 Sudeste 3.1 -- -- 88
2019-10-16 21:00:00 11.8 10 Sudeste 19 Sudeste 1 -- -- 88
2019-10-16 20:00:00 12 0 Calma 19 Sudeste 2.2 -- -- 85
2019-10-16 19:00:00 12.5 6 Sudeste 19 Sur 0.5 -- -- 80
2019-10-16 18:00:00 13.5 6 Sudoeste 26 Sudoeste 0.1 -- -- 73
2019-10-16 17:00:00 15.2 13 Sudoeste 38 Sudoeste 0 -- -- 67
2019-10-16 16:00:00 15.8 18 Sur 33 Sur 0 -- -- 65
2019-10-16 15:00:00 14.9 14 Sur 39 Sudoeste 0 -- -- 66
2019-10-16 14:00:00 15 17 Sur 45 Sur 0 -- -- 67
2019-10-16 13:00:00 15.1 21 Sudoeste 41 Sur 0 -- -- 67
2019-10-16 12:00:00 13.6 12 Sur 32 Sur 0 -- -- 73
2019-10-16 11:00:00 12.7 11 Sur 29 Sur 0 -- -- 76
2019-10-16 10:00:00 11.4 15 Sur 33 Sur 0 -- -- 82
2019-10-16 09:00:00 11.4 11 Sudeste 23 Sudeste 0 -- -- 82
2019-10-16 08:00:00 10.8 8 Sur 17 Sur 0 -- -- 84
2019-10-16 07:00:00 10.9 4 Sur 12 Sudeste 0 -- -- 81
2019-10-16 06:00:00 11.6 4 Sur 25 Sur 0 -- -- 79
2019-10-16 05:00:00 11.6 13 Sur 29 Sur 0 -- -- 79
2019-10-16 04:00:00 10.8 10 Sudeste 22 Sudeste 0 -- -- 80
2019-10-16 03:00:00 11 9 Sudeste 19 Sudeste 0 -- -- 78
2019-10-16 02:00:00 11 10 Sudeste 18 Sudeste 0 -- -- 74
2019-10-16 01:00:00 10.9 9 Sudeste 18 Sur 0 -- -- 74
2019-10-16 00:00:00 10.8 7 Sur 20 Sudeste 0 -- -- 76
2019-10-15 23:00:00 10.2 3 Este 8 Oeste 0 -- -- 83
2019-10-15 22:00:00 10.4 3 Sur 8 Sudeste 0 -- -- 79
2019-10-15 21:00:00 10.6 4 Sur 14 Sur 0 -- -- 75
2019-10-15 20:00:00 11.3 3 Sudoeste 30 Sudoeste 0 -- -- 70
2019-10-15 19:00:00 11.8 10 Sudoeste 25 Sudoeste 0 -- -- 68
2019-10-15 18:00:00 11.4 5 Sur 12 Sur 0 -- -- 72
2019-10-15 17:00:00 11.4 8 Sudoeste 24 Sudoeste 0 -- -- 68
2019-10-15 16:00:00 11.7 8 Sudoeste 25 Sudoeste 0.1 -- -- 73
2019-10-15 15:00:00 11.5 10 Sudoeste 28 Sudoeste 0 -- -- 80
2019-10-15 14:00:00 11.2 12 Oeste 31 Oeste 0 -- -- 76
2019-10-15 13:00:00 10.8 5 Este 14 Este 0 -- -- 90
2019-10-15 12:00:00 10.1 7 Sudeste 14 Sudeste 0 -- -- 92
2019-10-15 11:00:00 8 7 Sudeste 15 Sudeste 0 -- -- 93
2019-10-15 10:00:00 6.7 7 Sudeste 12 Sudeste 0 -- -- 93
2019-10-15 09:00:00 5.5 3 Sudeste 11 Sudeste 0 -- -- 93
2019-10-15 08:00:00 4.7 0 Calma 9 Sudeste 0 -- -- 93
2019-10-15 07:00:00 4.9 2 Sur 6 Sur 0 -- -- 92
2019-10-15 06:00:00 5.2 0 Calma 7 Sudoeste 0 -- -- 93
2019-10-15 05:00:00 5.6 0 Calma 8 Sudoeste 0 -- -- 92
2019-10-15 04:00:00 5 2 Sur 8 Sur 0 -- -- 92
2019-10-15 03:00:00 5.1 3 Sudoeste 8 Sur 0 -- -- 91
2019-10-15 02:00:00 4.6 0 Calma 16 Oeste 0 -- -- 91
2019-10-15 01:00:00 5.5 5 Oeste 17 Oeste 0 -- -- 90
2019-10-15 00:00:00 4.6 3 Oeste 10 Oeste 0 -- -- 89
2019-10-14 23:00:00 5.1 2 Oeste 12 Oeste 0 -- -- 87
2019-10-14 22:00:00 5.8 6 Oeste 21 Oeste 0 -- -- 86
2019-10-14 21:00:00 5.8 2 Sudoeste 13 Oeste 0 -- -- 84
2019-10-14 20:00:00 6.5 5 Oeste 40 Oeste 0.7 -- -- 81
2019-10-14 19:00:00 8.7 18 Oeste 38 Oeste 0 -- -- 68
2019-10-14 18:00:00 10.3 16 Oeste 37 Oeste 0 -- -- 62
2019-10-14 17:00:00 9.4 15 Oeste 34 Oeste 0.1 -- -- 75
2019-10-14 16:00:00 9.5 14 Oeste 28 Oeste 0.2 -- -- 83
2019-10-14 15:00:00 8.3 10 Oeste 36 Noroeste 2.3 -- -- 84
2019-10-14 14:00:00 12.5 13 Sudoeste 32 Sudoeste 0.1 -- -- 80
2019-10-14 13:00:00 12 9 Sudoeste 22 Sudoeste 0 -- -- 92
2019-10-14 12:00:00 9.5 3 Oeste 15 Sudoeste 0 -- -- 93
2019-10-14 11:00:00 8.9 2 Oeste 26 Oeste 3.6 -- -- 93
2019-10-14 10:00:00 8.9 5 Sur 13 Sudeste 0.7 -- -- 93
2019-10-14 09:00:00 8.2 7 Sudeste 16 Sudeste 0 -- -- 93
2019-10-14 08:00:00 7.9 4 Sudeste 7 Sudeste 0 -- -- 93
2019-10-14 07:00:00 8.3 4 Sudeste 22 Este 0.1 -- -- 93
2019-10-14 06:00:00 8.8 8 Sudeste 17 Sudeste 1.1 -- -- 93
2019-10-14 05:00:00 9.1 5 Sudeste 10 Sudeste 0.6 -- -- 92
2019-10-14 04:00:00 9.3 0 Calma 12 Noroeste 2.2 -- -- 93
2019-10-14 03:00:00 9.3 6 Noroeste 15 Noroeste 1.8 -- -- 92
2019-10-14 02:00:00 10.4 5 Noroeste 12 Nordeste 6 -- -- 92
2019-10-14 01:00:00 11.2 8 Norte 26 Sudeste 0.9 -- -- 92
2019-10-14 00:00:00 12.3 5 Este 9 Este 0.5 -- -- 92
2019-10-13 23:00:00 12.4 2 Sudoeste 9 Oeste 3.4 -- -- 92
2019-10-13 22:00:00 12.6 0 Calma 5 Oeste 2 -- -- 91
2019-10-13 21:00:00 12.9 0 Calma 3 Nordeste 2.7 -- -- 90
2019-10-13 20:00:00 13.1 0 Calma 8 Norte 0.4 -- -- 89
2019-10-13 19:00:00 13.3 0 Calma 19 Sudeste 0.1 -- -- 89
2019-10-13 18:00:00 13.8 6 Sur 13 Sur 0.1 -- -- 89
2019-10-13 17:00:00 13.7 2 Oeste 15 Oeste 1.2 -- -- 86
2019-10-13 16:00:00 14.4 4 Sur 21 Sur 1.3 -- -- 83
2019-10-13 15:00:00 15.1 13 Sur 27 Sur 0.1 -- -- 82
2019-10-13 14:00:00 14.6 5 Sur 24 Sur 0.1 -- -- 91
2019-10-13 13:00:00 14.9 7 Sudeste 22 Sudeste 0 -- -- 92
2019-10-13 12:00:00 13.7 6 Sudeste 13 Sudeste 1.5 -- -- 92
2019-10-13 11:00:00 12.8 9 Sudeste 23 Sudeste 2.1 -- -- 92
2019-10-13 10:00:00 12.6 13 Sudeste 23 Sudeste 2.5 -- -- 90
2019-10-13 09:00:00 12.5 9 Sudeste 28 Sudeste 2.8 -- -- 87
2019-10-13 08:00:00 13.2 14 Sudeste 32 Sur 0 -- -- 82
2019-10-13 07:00:00 13.5 18 Sudeste 33 Sudeste 0 -- -- 79
2019-10-13 06:00:00 13.9 19 Sudeste 37 Sur 0 -- -- 72
2019-10-13 05:00:00 14.2 18 Sur 39 Sur 0 -- -- 71
2019-10-13 04:00:00 14.4 18 Sur 39 Sur 0 -- -- 70
2019-10-13 03:00:00 14.5 14 Sur 35 Sur 0 -- -- 66
2019-10-13 02:00:00 14.3 17 Sur 39 Sudeste 0 -- -- 67
2019-10-13 01:00:00 14.6 15 Sur 33 Sudeste 0 -- -- 69
2019-10-13 00:00:00 13.8 9 Sur 21 Sur 0 -- -- 71
2019-10-12 23:00:00 13.6 5 Sur 24 Sudoeste 0 -- -- 69
2019-10-12 22:00:00 14.3 10 Sudoeste 30 Sur 0 -- -- 68
2019-10-12 21:00:00 15.4 15 Sudoeste 31 Sur 0 -- -- 67
2019-10-12 20:00:00 16.8 14 Sudoeste 30 Sur 0 -- -- 65
2019-10-12 19:00:00 18.6 9 Oeste 31 Sudoeste 0 -- -- 58
2019-10-12 18:00:00 21.6 19 Sur 39 Sur 0 -- -- 47
2019-10-12 17:00:00 22.2 18 Sur 38 Sur 0 -- -- 47
2019-10-12 16:00:00 23.4 17 Sur 41 Sur 0 -- -- 43
2019-10-12 15:00:00 23.5 14 Sudoeste 38 Sur 0 -- -- 44
2019-10-12 14:00:00 22.4 20 Sur 36 Sur 0 -- -- 47
2019-10-12 13:00:00 20.9 19 Sur 36 Sur 0 -- -- 52
2019-10-12 12:00:00 18.3 11 Sur 29 Sur 0 -- -- 61
2019-10-12 11:00:00 17.2 11 Sur 30 Sudeste 0 -- -- 67
2019-10-12 10:00:00 15.8 12 Sur 27 Sudeste 0 -- -- 73
2019-10-12 09:00:00 13.7 15 Sudeste 24 Sur 0 -- -- 82
2019-10-12 08:00:00 12.9 8 Sur 17 Sur 0 -- -- 84
2019-10-12 07:00:00 13.3 10 Sur 19 Sudeste 0 -- -- 85
2019-10-12 06:00:00 10.9 0 Calma 7 Norte 0 -- -- 84
2019-10-12 05:00:00 11.5 5 Noroeste 14 Oeste 0 -- -- 84
2019-10-12 04:00:00 11.2 0 Calma 8 Sudoeste 0 -- -- 87
2019-10-12 03:00:00 9.9 0 Calma 6 Este 0 -- -- 87
2019-10-12 02:00:00 9.3 0 Calma 5 Este 0 -- -- 84
2019-10-12 01:00:00 9.6 0 Calma 4 Sudeste 0 -- -- 80
2019-10-12 00:00:00 11.3 0 Calma 6 Sudoeste 0 -- -- 72
2019-10-11 23:00:00 14.3 0 Calma 11 Oeste 0 -- -- 63
2019-10-11 22:00:00 16.5 6 Oeste 23 Oeste 0 -- -- 57
2019-10-11 21:00:00 17 9 Oeste 18 Oeste 0 -- -- 51
2019-10-11 20:00:00 19.1 10 Oeste 26 Oeste 0 -- -- 42
2019-10-11 19:00:00 22.5 11 Oeste 30 Oeste 0 -- -- 37
2019-10-11 18:00:00 24.9 9 Oeste 27 Oeste 0 -- -- 33
2019-10-11 17:00:00 26.2 11 Oeste 30 Sudoeste 0 -- -- 32
2019-10-11 16:00:00 26.5 16 Sudoeste 42 Sudoeste 0 -- -- 32
2019-10-11 15:00:00 26.4 15 Sudoeste 39 Sudoeste 0 -- -- 33
2019-10-11 14:00:00 26 15 Sudoeste 30 Sudoeste 0 -- -- 33
2019-10-11 13:00:00 23.9 13 Sudeste 31 Sudeste 0 -- -- 34
2019-10-11 12:00:00 21.3 14 Sudeste 27 Sudeste 0 -- -- 36
2019-10-11 11:00:00 15.4 9 Sudeste 21 Sudeste 0 -- -- 89
2019-10-11 10:00:00 6.9 4 Sudoeste 7 Sudoeste 0 -- -- 92
2019-10-11 09:00:00 2.3 0 Calma 5 Sudoeste 0 -- -- 92
2019-10-11 08:00:00 2.6 0 Calma 3 Oeste 0 -- -- 92
2019-10-11 07:00:00 3.8 0 Calma 6 Sudoeste 0 -- -- 91
2019-10-11 06:00:00 4.5 4 Sudoeste 15 Sudoeste 0 -- -- 90
2019-10-11 05:00:00 5.1 5 Sudoeste 10 Sudoeste 0 -- -- 90
2019-10-11 04:00:00 4.8 2 Sudoeste 8 Sur 0 -- -- 89
2019-10-11 03:00:00 4.9 3 Sudoeste 7 Sur 0 -- -- 88
2019-10-11 02:00:00 5.6 5 Sudoeste 8 Sur 0 -- -- 87
2019-10-11 01:00:00 6.3 2 Sudoeste 6 Sudoeste 0 -- -- 84
2019-10-11 00:00:00 7.5 0 Calma 6 Sudoeste 0 -- -- 81
2019-10-10 23:00:00 8.4 4 Sur 6 Sudeste 0 -- -- 78
2019-10-10 22:00:00 11.3 5 Sudoeste 8 Sudoeste 0 -- -- 70
2019-10-10 21:00:00 13 0 Calma 7 Sudoeste 0 -- -- 60
2019-10-10 20:00:00 17.7 2 Norte 15 Sudeste 0 -- -- 45
2019-10-10 19:00:00 22.9 9 Sudeste 19 Sudeste 0 -- -- 31
2019-10-10 18:00:00 23.9 9 Sudeste 23 Sudeste 0 -- -- 31
2019-10-10 17:00:00 23.8 9 Este 18 Este 0 -- -- 31
2019-10-10 16:00:00 23.3 7 Sudeste 22 Este 0 -- -- 32
2019-10-10 15:00:00 21.7 8 Este 23 Este 0 -- -- 36
2019-10-10 14:00:00 20.1 13 Sudeste 23 Sudeste 0 -- -- 41
2019-10-10 13:00:00 15.1 5 Sudeste 12 Sudeste 0 -- -- 93
2019-10-10 12:00:00 8.5 3 Noroeste 7 Noroeste 0 -- -- 94
2019-10-10 11:00:00 5.9 0 Calma 6 Nordeste 0 -- -- 94
2019-10-10 10:00:00 4.8 0 Calma 6 Sudoeste 0 -- -- 94
2019-10-10 09:00:00 4.3 5 Sudoeste 7 Sudoeste 0 -- -- 93
2019-10-10 08:00:00 4.4 2 Norte 4 Norte 0 -- -- 93
2019-10-10 07:00:00 3.2 4 Norte 6 Norte 0 -- -- 92
2019-10-10 06:00:00 2.3 0 Calma 6 Sur 0 -- -- 92
2019-10-10 05:00:00 4 4 Sur 6 Sur 0 -- -- 91
2019-10-10 04:00:00 5 5 Sudoeste 9 Sur 0 -- -- 90
2019-10-10 03:00:00 5.2 3 Sudoeste 9 Sur 0 -- -- 89
2019-10-10 02:00:00 5.9 5 Sudoeste 10 Sudoeste 0 -- -- 87
2019-10-10 01:00:00 6.6 6 Sudoeste 17 Noroeste 0 -- -- 85
2019-10-10 00:00:00 7.6 7 Noroeste 11 Noroeste 0 -- -- 82
2019-10-09 23:00:00 9.1 4 Noroeste 16 Noroeste 0 -- -- 76
2019-10-09 22:00:00 10 8 Noroeste 15 Noroeste 0 -- -- 71
2019-10-09 21:00:00 10.9 7 Noroeste 13 Noroeste 0 -- -- 65
2019-10-09 20:00:00 12.7 9 Noroeste 26 Noroeste 0 -- -- 56
2019-10-09 19:00:00 15.6 14 Norte 27 Noroeste 0 -- -- 49
2019-10-09 18:00:00 16.7 17 Noroeste 30 Noroeste 0 -- -- 45
2019-10-09 17:00:00 17.2 16 Norte 30 Noroeste 0 -- -- 45
2019-10-09 16:00:00 16.6 14 Norte 29 Norte 0 -- -- 47
2019-10-09 15:00:00 16.4 15 Noroeste 29 Noroeste 0 -- -- 50
2019-10-09 14:00:00 15.4 13 Norte 28 Norte 0 -- -- 53
2019-10-09 13:00:00 14.1 15 Norte 28 Norte 0 -- -- 59
2019-10-09 12:00:00 12.8 12 Norte 23 Norte 0 -- -- 71
2019-10-09 11:00:00 10.8 12 Norte 22 Norte 0 -- -- 87
2019-10-09 10:00:00 8.7 5 Noroeste 12 Oeste 0 -- -- 92
2019-10-09 09:00:00 6.1 5 Oeste 11 Oeste 0 -- -- 92
2019-10-09 08:00:00 6.3 4 Oeste 10 Oeste 0 -- -- 92
2019-10-09 07:00:00 7 6 Oeste 14 Noroeste 0 -- -- 91
2019-10-09 06:00:00 7.4 11 Noroeste 22 Noroeste 0 -- -- 91
2019-10-09 05:00:00 7.6 7 Oeste 19 Noroeste 0 -- -- 91
2019-10-09 04:00:00 8.6 11 Noroeste 24 Noroeste 0 -- -- 91
2019-10-09 03:00:00 9.8 13 Noroeste 21 Noroeste 0 -- -- 92
2019-10-09 02:00:00 10.3 12 Noroeste 21 Noroeste 0 -- -- 92
2019-10-09 01:00:00 10.2 10 Noroeste 20 Norte 0 -- -- 92
2019-10-09 00:00:00 11.4 6 Noroeste 12 Norte 0 -- -- 92
2019-10-08 23:00:00 11.6 13 Noroeste 27 Noroeste 0 -- -- 92
2019-10-08 22:00:00 12.9 12 Norte 20 Norte 0 -- -- 90
2019-10-08 21:00:00 14.4 11 Noroeste 23 Noroeste 0 -- -- 88
2019-10-08 20:00:00 15.8 12 Norte 21 Norte 0 -- -- 87
2019-10-08 19:00:00 17.5 12 Norte 22 Norte 0 -- -- 82
2019-10-08 18:00:00 20.4 12 Norte 25 Norte 0 -- -- 69
2019-10-08 17:00:00 20.8 13 Noroeste 23 Noroeste 0 -- -- 66
2019-10-08 16:00:00 22.6 8 Noroeste 14 Oeste 0 -- -- 61
2019-10-08 15:00:00 22.1 10 Noroeste 23 Oeste 0 -- -- 62
2019-10-08 14:00:00 22.3 3 Noroeste 14 Oeste 0 -- -- 60
2019-10-08 13:00:00 21.3 3 Oeste 9 Oeste 0 -- -- 65
2019-10-08 12:00:00 19.3 4 Norte 8 Norte 0 -- -- 81
2019-10-08 11:00:00 15.6 3 Nordeste 6 Este 0 -- -- 92
2019-10-08 10:00:00 11.3 0 Calma 4 Este 0 -- -- 92
2019-10-08 09:00:00 9.5 0 Calma 0 Calma 0 -- -- 92
2019-10-08 08:00:00 7.5 0 Calma 2 Este 0 -- -- 92
2019-10-08 07:00:00 5.6 0 Calma 3 Noroeste 0 -- -- 91
2019-10-08 06:00:00 6 2 Noroeste 4 Noroeste 0 -- -- 90
2019-10-08 05:00:00 6.4 0 Calma 3 Este 0 -- -- 89
2019-10-08 04:00:00 6.8 0 Calma 0 Calma 0 -- -- 87
2019-10-08 03:00:00 7.5 0 Calma 3 Sur 0 -- -- 84
2019-10-08 02:00:00 8.2 0 Calma -- -- 0 -- -- 82
2019-10-08 01:00:00 9 0 Calma 6 Sudoeste 0 -- -- 77
2019-10-08 00:00:00 10.4 0 Calma 6 Sudeste 0 -- -- 70
2019-10-07 23:00:00 12.4 2 Sudoeste 6 Sudoeste 0 -- -- 62
2019-10-07 22:00:00 14.2 6 Sudoeste 9 Sudoeste 0 -- -- 55
2019-10-07 21:00:00 15.6 0 Calma 7 Oeste 0 -- -- 50
2019-10-07 20:00:00 20.2 3 Noroeste 10 Norte 0 -- -- 34
2019-10-07 19:00:00 23.7 7 Norte 18 Norte 0 -- -- 27
2019-10-07 18:00:00 24.9 10 Norte 21 Noroeste 0 -- -- 27
2019-10-07 17:00:00 25.3 12 Norte 19 Norte 0 -- -- 28
2019-10-07 16:00:00 25.9 11 Norte 18 Noroeste 0 -- -- 25
2019-10-07 15:00:00 25.5 5 Oeste 11 Norte 0 -- -- 30
2019-10-07 14:00:00 23.5 2 Noroeste 9 Noroeste 0 -- -- 34
2019-10-07 13:00:00 20.6 3 Noroeste 7 Oeste 0 -- -- 52
2019-10-07 12:00:00 16.2 0 Calma 6 Noroeste 0 -- -- 83
2019-10-07 11:00:00 11.5 0 Calma 3 Este 0 -- -- 93
2019-10-07 10:00:00 6.2 0 Calma 6 Nordeste 0 -- -- 93
2019-10-07 09:00:00 2.5 0 Calma 3 Sur 0 -- -- 93
2019-10-07 08:00:00 2.3 0 Calma -- -- 0 -- -- 92
2019-10-07 07:00:00 3.1 0 Calma -- -- 0 -- -- 92
2019-10-07 06:00:00 3.7 0 Calma -- -- 0 -- -- 92
2019-10-07 05:00:00 4.3 0 Calma 2 Sudoeste 0 -- -- 91
2019-10-07 04:00:00 5.6 0 Calma 3 Sur 0 -- -- 90
2019-10-07 03:00:00 7.1 0 Calma 3 Sur 0 -- -- 89
2019-10-07 02:00:00 8.4 0 Calma 5 Oeste 0 -- -- 87
2019-10-07 01:00:00 9.9 3 Sudoeste 8 Oeste 0 -- -- 85
2019-10-07 00:00:00 9.8 0 Calma 5 Oeste 0 -- -- 81
2019-10-06 23:00:00 12 2 Sur 6 Sudoeste 0 -- -- 76
2019-10-06 22:00:00 12.8 0 Calma 7 Sudoeste 0 -- -- 68
2019-10-06 21:00:00 14.9 0 Calma 8 Noroeste 0 -- -- 60
2019-10-06 20:00:00 18.1 5 Noroeste 13 Norte 0 -- -- 52
2019-10-06 19:00:00 20.8 8 Norte 19 Nordeste 0 -- -- 46
2019-10-06 18:00:00 22.4 10 Norte 21 Noroeste 0 -- -- 45
2019-10-06 17:00:00 22.3 12 Norte 23 Norte 0 -- -- 46
2019-10-06 16:00:00 22.8 12 Norte 22 Norte 0 -- -- 47
2019-10-06 15:00:00 22.8 3 Sur 10 Noroeste 0 -- -- 48
2019-10-06 14:00:00 20.6 5 Norte 12 Noroeste 0 -- -- 54
2019-10-06 13:00:00 19.6 3 Este 10 Este 0 -- -- 67
2019-10-06 12:00:00 15.4 4 Noroeste 6 Noroeste 0 -- -- 92
2019-10-06 11:00:00 11.1 0 Calma 4 Sudeste 0 -- -- 93
2019-10-06 10:00:00 7.6 0 Calma 4 Norte 0 -- -- 93
2019-10-06 09:00:00 4.1 0 Calma 0 Calma 0 -- -- 92
2019-10-06 08:00:00 4.7 0 Calma 5 Norte 0 -- -- 92
2019-10-06 07:00:00 5.5 2 Sudeste 6 Sur 0 -- -- 92
2019-10-06 06:00:00 5.7 0 Calma 4 Sur 0 -- -- 92
2019-10-06 05:00:00 6.9 0 Calma 8 Oeste 0 -- -- 91
2019-10-06 04:00:00 8.5 5 Oeste 9 Oeste 0 -- -- 91
2019-10-06 03:00:00 8.2 5 Sur 8 Sudoeste 0 -- -- 90
2019-10-06 02:00:00 7.8 0 Calma 5 Oeste 0 -- -- 89
2019-10-06 01:00:00 9.2 0 Calma 13 Oeste 0 -- -- 87
2019-10-06 00:00:00 10.3 3 Oeste 9 Oeste 0 -- -- 85
2019-10-05 23:00:00 11.3 0 Calma 11 Oeste 0 -- -- 81
2019-10-05 22:00:00 12.3 0 Calma 12 Noroeste 0 -- -- 77
2019-10-05 21:00:00 14 4 Oeste 9 Oeste 0 -- -- 71
2019-10-05 20:00:00 15.7 6 Noroeste 14 Noroeste 0 -- -- 65
2019-10-05 19:00:00 17.6 9 Noroeste 18 Norte 0 -- -- 60
2019-10-05 18:00:00 18.9 13 Norte -- -- -- -- -- 55
2019-10-05 17:00:00 19.5 15 Norte 24 Norte 0 -- -- 52
2019-10-05 16:00:00 20.2 8 Norte 17 Norte 0 -- -- 51
2019-10-05 15:00:00 19.3 3 Noroeste 13 Noroeste 0 -- -- 53
2019-10-05 14:00:00 17 2 Oeste 11 Nordeste 0 -- -- 71
2019-10-05 13:00:00 14.1 4 Noroeste 10 Noroeste 0 -- -- 93
2019-10-05 12:00:00 12.5 0 Calma 3 Norte 0 -- -- 93
2019-10-05 11:00:00 11.4 0 Calma 5 Nordeste 0 -- -- 93
2019-10-05 10:00:00 10.5 0 Calma -- -- 0 -- -- 93
2019-10-05 09:00:00 10.1 0 Calma -- -- 0 -- -- 93
2019-10-05 08:00:00 9.2 0 Calma 5 Nordeste 0 -- -- 93
2019-10-05 07:00:00 10.3 3 Oeste 7 Sudoeste 0 -- -- 93
2019-10-05 06:00:00 10.3 0 Calma 4 Sudoeste 0 -- -- 93
2019-10-05 05:00:00 10.3 3 Sudoeste 5 Sudoeste 0 -- -- 92
2019-10-05 04:00:00 9.3 0 Calma -- -- 0 -- -- 92
2019-10-05 03:00:00 8.3 0 Calma -- -- 0 -- -- 92
2019-10-05 02:00:00 6.1 0 Calma -- -- 0 -- -- 90
2019-10-05 01:00:00 6.7 0 Calma 3 Sudoeste 0 -- -- 89
2019-10-05 00:00:00 8.4 0 Calma 3 Oeste 0 -- -- 87
2019-10-04 23:00:00 11.2 0 Calma 5 Este 0 -- -- 85
2019-10-04 22:00:00 13.7 3 Este 5 Sudeste 0 -- -- 83
2019-10-04 21:00:00 14.9 0 Calma 8 Norte 0 -- -- 81
2019-10-04 20:00:00 15.5 6 Norte 10 Noroeste 0 -- -- 75
2019-10-04 19:00:00 17.7 7 Noroeste 17 Norte 0 -- -- 67
2019-10-04 18:00:00 19.1 9 Norte 20 Norte 0 -- -- 64
2019-10-04 17:00:00 18.4 12 Noroeste 26 Noroeste 0 -- -- 67
2019-10-04 16:00:00 18.8 16 Norte 26 Noroeste 0 -- -- 65
2019-10-04 15:00:00 20.8 7 Noroeste 14 Sudeste 0 -- -- 57
2019-10-04 14:00:00 18.9 3 Nordeste 18 Norte 0 -- -- 71
2019-10-04 13:00:00 17.3 9 Norte 19 Norte 0 -- -- 79
2019-10-04 12:00:00 16.8 5 Noroeste 10 Norte 0 -- -- 91
2019-10-04 11:00:00 16 0 Calma 5 Norte 0 -- -- 92
2019-10-04 10:00:00 15.1 0 Calma 8 Oeste 0 -- -- 92
2019-10-04 09:00:00 14.8 0 Calma 4 Sudoeste 0.1 -- -- 92
2019-10-04 08:00:00 14.7 0 Calma -- -- 0 -- -- 92
2019-10-04 07:00:00 14.6 0 Calma 5 Oeste 0 -- -- 92
2019-10-04 06:00:00 14.7 3 Oeste 8 Oeste 0 -- -- 92
2019-10-04 05:00:00 14.8 2 Oeste 6 Oeste 0 -- -- 92
2019-10-04 04:00:00 14.9 0 Calma 6 Sudoeste 0.1 -- -- 92
2019-10-04 03:00:00 15 0 Calma 5 Oeste 0.1 -- -- 92
2019-10-04 02:00:00 15 0 Calma -- -- 0.1 -- -- 92
2019-10-04 01:00:00 15 0 Calma 2 Norte 0 -- -- 91
2019-10-04 00:00:00 15.1 0 Calma 6 Nordeste 0.6 -- -- 90
2019-10-03 23:00:00 15.2 4 Nordeste 7 Nordeste 0 -- -- 88
2019-10-03 22:00:00 15.8 3 Nordeste 9 Nordeste 0 -- -- 84
2019-10-03 21:00:00 16.2 3 Norte 13 Norte 0 -- -- 81
2019-10-03 20:00:00 17.3 8 Norte 14 Norte 0 -- -- 74
2019-10-03 19:00:00 18.8 6 Nordeste 14 Norte 0 -- -- 69
2019-10-03 18:00:00 19.4 10 Norte 23 Norte 0 -- -- 66
2019-10-03 17:00:00 21.1 11 Noroeste 21 Noroeste 0 -- -- 53
2019-10-03 16:00:00 22.5 7 Noroeste 19 Oeste 0 -- -- 53
2019-10-03 15:00:00 20.4 8 Noroeste 21 Oeste 0 -- -- 58
2019-10-03 14:00:00 19.8 6 Noroeste 15 Nordeste 0 -- -- 50
2019-10-03 13:00:00 17.7 3 Norte 10 Noroeste 0 -- -- 54
2019-10-03 12:00:00 14.8 4 Nordeste 8 Nordeste 0 -- -- 84
2019-10-03 11:00:00 9.9 0 Calma 5 Sur 0 -- -- 93
2019-10-03 10:00:00 5.2 0 Calma 6 Sudoeste 0 -- -- 93
2019-10-03 09:00:00 0.8 3 Sudoeste 7 Oeste 0 -- -- 93
2019-10-03 08:00:00 0.4 0 Calma 6 Este 0 -- -- 92
2019-10-03 07:00:00 1.1 4 Sudeste 7 Este 0 -- -- 92
2019-10-03 06:00:00 1.4 0 Calma -- -- 0 -- -- 92
2019-10-03 05:00:00 2.9 0 Calma 4 Sur 0 -- -- 91
2019-10-03 04:00:00 4 3 Sur 8 Oeste 0 -- -- 90
2019-10-03 03:00:00 4.8 6 Oeste 10 Oeste 0 -- -- 89
2019-10-03 02:00:00 5.5 0 Calma 7 Sur 0 -- -- 88
2019-10-03 01:00:00 7.5 4 Sur 8 Sur 0 -- -- 88
2019-10-03 00:00:00 7.9 4 Sudoeste 7 Oeste 0 -- -- 85
2019-10-02 23:00:00 7.6 4 Sudoeste 6 Sudoeste 0 -- -- 80
2019-10-02 22:00:00 9.9 3 Sudoeste 8 Oeste 0 -- -- 74
2019-10-02 21:00:00 12 3 Noroeste 8 Noroeste 0 -- -- 65
2019-10-02 20:00:00 14.6 6 Noroeste 13 Noroeste 0 -- -- 57
2019-10-02 19:00:00 17.4 9 Noroeste 18 Noroeste 0 -- -- 50
2019-10-02 18:00:00 17.8 11 Noroeste 54 Noroeste 0 -- -- 49
2019-10-02 17:00:00 18.2 9 Noroeste 23 Norte 0 -- -- 49
2019-10-02 16:00:00 17.9 14 Noroeste 26 Noroeste 0 -- -- 49
2019-10-02 15:00:00 16.7 12 Norte 24 Noroeste 0 -- -- 52
2019-10-02 14:00:00 16 13 Noroeste 25 Norte 0 -- -- 54
2019-10-02 13:00:00 15.8 13 Norte 27 Noroeste 0 -- -- 56
2019-10-02 12:00:00 14.6 13 Norte 23 Norte 0 -- -- 60
2019-10-02 11:00:00 13.5 10 Norte 19 Norte 0 -- -- 75
2019-10-02 10:00:00 10.6 3 Noroeste 7 Noroeste 0 -- -- 92
2019-10-02 09:00:00 8.3 0 Calma 8 Noroeste 0 -- -- 92
2019-10-02 08:00:00 7.8 3 Noroeste 8 Oeste 0 -- -- 91
2019-10-02 07:00:00 8.6 5 Norte 10 Norte 0 -- -- 90
2019-10-02 06:00:00 10.1 0 Calma 9 Noroeste 0 -- -- 90
2019-10-02 05:00:00 9.9 4 Noroeste 8 Noroeste 0 -- -- 89
2019-10-02 04:00:00 9.7 5 Noroeste 12 Oeste 0 -- -- 88
2019-10-02 03:00:00 10.9 5 Oeste 12 Oeste 0 -- -- 88
2019-10-02 02:00:00 10.1 0 Calma 9 Noroeste 0 -- -- 88
2019-10-02 01:00:00 10.3 5 Oeste 13 Oeste 0 -- -- 87
2019-10-02 00:00:00 10.6 7 Oeste 18 Oeste 0 -- -- 85
2019-10-01 23:00:00 11.2 11 Oeste 20 Oeste 0 -- -- 83
2019-10-01 22:00:00 12.2 11 Noroeste 25 Oeste 0 -- -- 79
2019-10-01 21:00:00 13.2 13 Noroeste 24 Noroeste 0 -- -- 71
2019-10-01 20:00:00 15.1 14 Noroeste 27 Noroeste 0 -- -- 62
2019-10-01 19:00:00 17.8 16 Noroeste 32 Noroeste 0 -- -- 51
2019-10-01 18:00:00 19.7 14 Noroeste 30 Oeste 0 -- -- 47
2019-10-01 17:00:00 20.2 17 Noroeste 28 Noroeste 0 -- -- 47
2019-10-01 16:00:00 18.9 14 Noroeste 29 Noroeste 0 -- -- 50
2019-10-01 15:00:00 20.5 15 Noroeste 29 Noroeste 0 -- -- 46
2019-10-01 14:00:00 20.2 15 Noroeste 34 Noroeste 0 -- -- 49
2019-10-01 13:00:00 18.5 15 Oeste 31 Oeste 0 -- -- 55
2019-10-01 12:00:00 17.1 14 Oeste 25 Noroeste 0 -- -- 71
2019-10-01 11:00:00 15.7 3 Oeste 21 Oeste 0 -- -- 92
2019-10-01 10:00:00 13.9 5 Oeste 13 Oeste 0 -- -- 92
2019-10-01 09:00:00 13.6 3 Oeste 11 Sudoeste 0 -- -- 92
2019-10-01 08:00:00 13.1 2 Sudoeste 10 Sudoeste 0 -- -- 92
2019-10-01 07:00:00 11.8 0 Calma 6 Sudeste 0 -- -- 92
2019-10-01 06:00:00 11.9 2 Sudeste 8 Sudeste 0 -- -- 91
2019-10-01 05:00:00 11.7 0 Calma 3 Oeste 0 -- -- 90
2019-10-01 04:00:00 12.9 4 Oeste 16 Oeste 0 -- -- 90
2019-10-01 03:00:00 13.6 6 Noroeste 18 Oeste 0 -- -- 90
2019-10-01 02:00:00 14 4 Oeste 14 Oeste 0 -- -- 90
2019-10-01 01:00:00 14.5 7 Oeste 15 Oeste 0 -- -- 89
2019-10-01 00:00:00 14.4 5 Noroeste 14 Oeste 0 -- -- 89
2019-09-30 23:00:00 14.6 3 Sudoeste 12 Sudoeste 0 -- -- 87
2019-09-30 22:00:00 15.6 2 Oeste 13 Oeste 0 -- -- 83
2019-09-30 21:00:00 17.5 4 Sudoeste 15 Sudoeste 0 -- -- 75
2019-09-30 20:00:00 20.1 6 Oeste 31 Oeste 0 -- -- 58
2019-09-30 19:00:00 23.3 10 Oeste 28 Oeste 0 -- -- 52
2019-09-30 18:00:00 25.1 11 Oeste 27 Noroeste 0 -- -- 47
2019-09-30 17:00:00 25.8 12 Oeste 23 Oeste 0 -- -- 47
2019-09-30 16:00:00 25.9 4 Noroeste 14 Norte 0 -- -- 52
2019-09-30 15:00:00 24 6 Noroeste 14 Noroeste 0 -- -- 57
2019-09-30 14:00:00 22.3 6 Este 15 Este 0 -- -- 70
2019-09-30 13:00:00 18.7 5 Este 9 Este 0 -- -- 92
2019-09-30 12:00:00 17 0 Calma 5 Este 0 -- -- 92
2019-09-30 11:00:00 15.9 0 Calma 6 Este 0 -- -- 93
2019-09-30 10:00:00 15.1 0 Calma 7 Este 0 -- -- 93
2019-09-30 09:00:00 14.7 0 Calma -- -- 0 -- -- 93
2019-09-30 08:00:00 14.3 0 Calma 2 Sur 0 -- -- 92
2019-09-30 07:00:00 14.4 0 Calma 4 Sudoeste 0 -- -- 92
2019-09-30 06:00:00 14.7 0 Calma 2 Oeste 0 -- -- 92
2019-09-30 05:00:00 15.3 0 Calma 6 Sudeste 0 -- -- 92
2019-09-30 04:00:00 15.2 0 Calma 4 Sudoeste 0 -- -- 92
2019-09-30 03:00:00 15.5 0 Calma 5 Sur 0 -- -- 92
2019-09-30 02:00:00 15.6 2 Sudoeste 9 Oeste 0 -- -- 92
2019-09-30 01:00:00 15.7 0 Calma 12 Oeste 0 -- -- 92
2019-09-30 00:00:00 15.5 5 Oeste 15 Oeste 0.1 -- -- 91
2019-09-29 23:00:00 15.7 0 Calma 17 Oeste 0.3 -- -- 90
2019-09-29 22:00:00 16 7 Oeste 19 Oeste 0 -- -- 88
2019-09-29 21:00:00 16.3 10 Oeste 21 Oeste 0 -- -- 85
2019-09-29 20:00:00 17.6 7 Oeste 21 Oeste 0 -- -- 78
2019-09-29 19:00:00 19 8 Oeste 24 Oeste 0 -- -- 73
2019-09-29 18:00:00 19.3 13 Oeste 36 Oeste 0 -- -- 71
2019-09-29 17:00:00 21 12 Oeste 33 Oeste 0 -- -- 62
2019-09-29 16:00:00 22.4 11 Oeste 29 Oeste 0 -- -- 57
2019-09-29 15:00:00 22.6 10 Sudoeste 27 Oeste 0 -- -- 57
2019-09-29 14:00:00 21.8 8 Sudoeste 21 Oeste 0 -- -- 57
2019-09-29 13:00:00 19.4 3 Sur 17 Oeste 0 -- -- 59
2019-09-29 12:00:00 16.2 5 Sudoeste 12 Oeste 0 -- -- 66
2019-09-29 11:00:00 11.8 3 Nordeste 6 Nordeste 0 -- -- 81
2019-09-29 10:00:00 7.4 0 Calma 7 Oeste 0 -- -- 92
2019-09-29 09:00:00 3.2 0 Calma 6 Sudoeste 0 -- -- 92
2019-09-29 08:00:00 2.5 0 Calma 8 Sur 0 -- -- 92
2019-09-29 07:00:00 3 0 Calma 8 Oeste 0 -- -- 92
2019-09-29 06:00:00 2.4 0 Calma 6 Sur 0 -- -- 92
2019-09-29 05:00:00 2.5 0 Calma 4 Noroeste 0 -- -- 91
2019-09-29 04:00:00 3.2 0 Calma 6 Sur 0 -- -- 90
2019-09-29 03:00:00 4.7 4 Sudeste 8 Sudeste 0 -- -- 89
2019-09-29 02:00:00 6.2 4 Sudoeste 8 Oeste 0 -- -- 87
2019-09-29 01:00:00 8 4 Sudeste 9 Sudeste 0 -- -- 87
2019-09-29 00:00:00 8.9 0 Calma 5 Oeste 0 -- -- 84
2019-09-28 23:00:00 12.6 3 Oeste 10 Sudoeste 0 -- -- 79
2019-09-28 22:00:00 14.4 5 Sudoeste 11 Oeste 0 -- -- 73
2019-09-28 21:00:00 14.7 0 Calma 9 Noroeste 0 -- -- 60
2019-09-28 20:00:00 19.6 3 Nordeste 12 Norte 0 -- -- 47
2019-09-28 19:00:00 22.2 8 Norte 18 Norte 0 -- -- 44
2019-09-28 18:00:00 25.2 7 Norte 14 Norte 0 -- -- 36
2019-09-28 17:00:00 25.5 6 Nordeste 18 Este 0 -- -- 31
2019-09-28 16:00:00 24.6 9 Este 19 Este 0 -- -- 33
2019-09-28 15:00:00 23.7 8 Sudeste 21 Sudeste 0 -- -- 34
2019-09-28 14:00:00 21.4 11 Sudeste 21 Este 0 -- -- 44
2019-09-28 13:00:00 16 3 Sudoeste 8 Oeste 0 -- -- 94
2019-09-28 12:00:00 11.3 3 Sur 7 Sudoeste 0 -- -- 94
2019-09-28 11:00:00 8.6 0 Calma 9 Sudeste 0 -- -- 94
2019-09-28 10:00:00 8.2 2 Sudeste 8 Sudeste 0 -- -- 94
2019-09-28 09:00:00 8.2 0 Calma 7 Sur 0 -- -- 94
2019-09-28 08:00:00 8.5 0 Calma 4 Sudoeste 0 -- -- 94
2019-09-28 07:00:00 8.3 0 Calma 2 Oeste 0 -- -- 93
2019-09-28 06:00:00 7.7 0 Calma 6 Sur 0 -- -- 93
2019-09-28 05:00:00 6.2 0 Calma 3 Oeste 0 -- -- 93
2019-09-28 04:00:00 7.5 0 Calma 4 Sur 0 -- -- 92
2019-09-28 03:00:00 8.3 0 Calma 3 Sudoeste 0 -- -- 92
2019-09-28 02:00:00 9.7 0 Calma 2 Oeste 0 -- -- 92
2019-09-28 01:00:00 10.7 0 Calma 4 Norte 0 -- -- 92
2019-09-28 00:00:00 10.1 0 Calma 5 Nordeste 0 -- -- 90
2019-09-27 23:00:00 10.6 0 Calma 10 Norte 0 -- -- 87
2019-09-27 22:00:00 12 3 Este 6 Oeste 0.1 -- -- 82
2019-09-27 21:00:00 14.3 3 Oeste 11 Noroeste 0 -- -- 79
2019-09-27 20:00:00 15.4 5 Norte 15 Noroeste 0 -- -- 73
2019-09-27 19:00:00 18.4 10 Noroeste 19 Noroeste 0 -- -- 62
2019-09-27 18:00:00 -- 13 Noroeste 20 Noroeste 0 -- -- --
2019-09-27 17:00:00 17.8 10 Noroeste 19 Noroeste 0 -- -- 75
2019-09-27 16:00:00 17.7 6 Oeste 19 Noroeste 0.1 -- -- 89
2019-09-27 15:00:00 16 10 Oeste 30 Oeste 0.6 -- -- 88
2019-09-27 14:00:00 16.3 14 Oeste 29 Oeste 0 -- -- 82
2019-09-27 13:00:00 16.5 13 Oeste 26 Noroeste 0 -- -- 78
2019-09-27 12:00:00 16.9 5 Oeste 14 Oeste 0 -- -- 87
2019-09-27 11:00:00 12.8 2 Sudeste 6 Sudeste 0 -- -- 93
2019-09-27 10:00:00 9.6 3 Sur 11 Sur 0 -- -- 93
2019-09-27 09:00:00 8.1 0 Calma 10 Sur 0 -- -- 93
2019-09-27 08:00:00 7.7 4 Sur 10 Sur 0 -- -- 93
2019-09-27 07:00:00 7.9 0 Calma 9 Sur 0 -- -- 92
2019-09-27 06:00:00 7.4 3 Sur 6 Sur 0 -- -- 92
2019-09-27 05:00:00 7.7 2 Oeste 7 Sur 0 -- -- 92
2019-09-27 04:00:00 8.7 2 Oeste 5 Oeste 0 -- -- 90
2019-09-27 03:00:00 9.6 0 Calma 5 Oeste 0 -- -- 89
2019-09-27 02:00:00 11.1 3 Nordeste 10 Norte 0 -- -- 89
2019-09-27 01:00:00 11.7 3 Norte 4 Norte 0 -- -- 88
2019-09-27 00:00:00 11.6 3 Este 10 Noroeste 0 -- -- 87
2019-09-26 23:00:00 12.4 5 Noroeste 14 Norte 0 -- -- 88
2019-09-26 22:00:00 10.8 5 Norte 8 Norte 0 -- -- 81
2019-09-26 21:00:00 13.5 5 Norte 11 Noroeste 0 -- -- 71
2019-09-26 20:00:00 17.7 5 Norte 13 Noroeste 0 -- -- 57
2019-09-26 19:00:00 20.2 8 Noroeste 18 Noroeste 0 -- -- 51
2019-09-26 18:00:00 21.5 10 Noroeste 20 Noroeste 0 -- -- 47
2019-09-26 17:00:00 22.9 11 Nordeste 19 Norte 0 -- -- 47
2019-09-26 16:00:00 22.4 4 Oeste 15 Oeste 0 -- -- 45
2019-09-26 15:00:00 21.3 5 Oeste 17 Oeste 0 -- -- 47
2019-09-26 14:00:00 19.5 4 Oeste 13 Nordeste 0 -- -- 53
2019-09-26 13:00:00 17.4 5 Nordeste 16 Oeste 0 -- -- 63
2019-09-26 12:00:00 14.9 2 Noroeste 9 Sudoeste 0 -- -- 93
2019-09-26 11:00:00 10.5 0 Calma 5 Sur 0 -- -- 94
2019-09-26 10:00:00 7.8 2 Sudoeste 5 Sudoeste 0 -- -- 94
2019-09-26 09:00:00 6.8 0 Calma 4 Sur 0 -- -- 94
2019-09-26 08:00:00 6.4 0 Calma 4 Sur 0 -- -- 94
2019-09-26 07:00:00 6.5 0 Calma 6 Sur 0 -- -- 93
2019-09-26 06:00:00 6.7 0 Calma 4 Sudoeste 0 -- -- 93
2019-09-26 05:00:00 6.4 0 Calma 4 Sudeste 0 -- -- 92
2019-09-26 04:00:00 6.2 3 Noroeste 4 Noroeste 0 -- -- 92
2019-09-26 03:00:00 6.9 0 Calma 0 Calma 0 -- -- 91
2019-09-26 02:00:00 8.1 0 Calma 3 Sur 0 -- -- 90
2019-09-26 01:00:00 8.9 0 Calma 3 Sur 0 -- -- 88
2019-09-26 00:00:00 10.5 0 Calma 7 Oeste 0 -- -- 86
2019-09-25 23:00:00 11.9 3 Oeste 18 Oeste 0 -- -- 83
2019-09-25 22:00:00 12.5 6 Noroeste 19 Noroeste 0 -- -- 79
2019-09-25 21:00:00 13.7 5 Noroeste 18 Oeste 0 -- -- 71
2019-09-25 20:00:00 15.6 9 Noroeste 18 Oeste 0 -- -- 65
2019-09-25 19:00:00 16.7 6 Oeste 16 Oeste 0 -- -- 60
2019-09-25 18:00:00 17.5 7 Oeste 17 Oeste 0 -- -- 55
2019-09-25 17:00:00 18.1 7 Oeste 18 Noroeste 0 -- -- 52
2019-09-25 16:00:00 18 8 Oeste 19 Noroeste 0 -- -- 51
2019-09-25 15:00:00 18.8 10 Noroeste 21 Noroeste 0 -- -- 48
2019-09-25 14:00:00 18.2 12 Noroeste 22 Oeste 0 -- -- 52
2019-09-25 13:00:00 16.9 12 Noroeste 19 Oeste 0 -- -- 57
2019-09-25 12:00:00 14.1 5 Oeste 13 Oeste 0 -- -- 86
2019-09-25 11:00:00 12.9 0 Calma 9 Sudoeste 0 -- -- 92
2019-09-25 10:00:00 11.4 0 Calma 5 Sudeste 0 -- -- 92
2019-09-25 09:00:00 10.4 0 Calma 4 Noroeste 0 -- -- 92
2019-09-25 08:00:00 10 0 Calma 6 Oeste 0 -- -- 92
2019-09-25 07:00:00 9.7 0 Calma 4 Sudoeste 0 -- -- 91
2019-09-25 06:00:00 10.1 0 Calma 5 Sur 0 -- -- 90
2019-09-25 05:00:00 10.6 0 Calma 12 Oeste 0 -- -- 89
2019-09-25 04:00:00 11 4 Oeste 10 Oeste 0 -- -- 87
2019-09-25 03:00:00 10.8 5 Oeste 12 Noroeste 0 -- -- 87
2019-09-25 02:00:00 11 8 Noroeste 15 Oeste 0 -- -- 87
2019-09-25 01:00:00 10.7 8 Oeste 13 Oeste 0 -- -- 87
2019-09-25 00:00:00 9.9 3 Noroeste 14 Oeste 0 -- -- 85
2019-09-24 23:00:00 11.3 10 Oeste 18 Oeste 0 -- -- 84
2019-09-24 22:00:00 12 9 Noroeste 19 Noroeste 0 -- -- 82
2019-09-24 21:00:00 13.1 6 Noroeste 21 Noroeste 0 -- -- 76
2019-09-24 20:00:00 14.7 13 Noroeste 26 Oeste 0 -- -- 67
2019-09-24 19:00:00 15.9 13 Noroeste 30 Noroeste 0 -- -- 65
2019-09-24 18:00:00 17.2 12 Oeste 28 Noroeste 0 -- -- 61
2019-09-24 17:00:00 18.6 8 Sudoeste 24 Noroeste 0 -- -- 57
2019-09-24 16:00:00 20.1 9 Oeste 22 Sudoeste 0 -- -- 55
2019-09-24 15:00:00 20.6 11 Oeste 25 Oeste 0 -- -- 57
2019-09-24 14:00:00 19 14 Noroeste 28 Norte 0.1 -- -- 63
2019-09-24 13:00:00 20.5 12 Sudoeste 32 Sudoeste 0 -- -- 65
2019-09-24 12:00:00 18.1 9 Sudoeste 24 Sudoeste 0 -- -- 88
2019-09-24 11:00:00 16.5 5 Sudoeste 17 Sudeste 0 -- -- 92
2019-09-24 10:00:00 14.5 4 Sudeste 17 Este 0.1 -- -- 92
2019-09-24 09:00:00 13.9 2 Sur 8 Este 0 -- -- 90
2019-09-24 08:00:00 13.7 0 Calma 13 Sur 0.2 -- -- 89
2019-09-24 07:00:00 13.9 5 Este 16 Sudeste 0 -- -- 86
2019-09-24 06:00:00 14.7 6 Sudeste 23 Sudeste 0.1 -- -- 81
2019-09-24 05:00:00 15.1 10 Sur 29 Sudeste 0 -- -- 79
2019-09-24 04:00:00 14.9 9 Sudeste 19 Sudoeste 0 -- -- 79
2019-09-24 03:00:00 13.9 10 Sudeste 17 Sudeste 0 -- -- 81
2019-09-24 02:00:00 13.8 2 Oeste 11 Oeste 0 -- -- 79
2019-09-24 01:00:00 14.2 3 Sudoeste 9 Sur 0 -- -- 78
2019-09-24 00:00:00 13.6 3 Norte 7 Sudeste 0 -- -- 77
2019-09-23 23:00:00 13.5 4 Sudeste 11 Sudeste 0 -- -- 76
2019-09-23 22:00:00 13.1 0 Calma 4 Sudeste 0 -- -- 75
2019-09-23 21:00:00 15.4 3 Sudoeste 18 Oeste 0 -- -- 67
2019-09-23 20:00:00 17.4 11 Oeste 24 Oeste 0 -- -- 62
2019-09-23 19:00:00 17.6 10 Oeste 26 Oeste 0 -- -- 61
2019-09-23 18:00:00 18.5 10 Oeste 28 Oeste 0 -- -- 57
2019-09-23 17:00:00 19.3 11 Oeste 25 Oeste 0 -- -- 53
2019-09-23 16:00:00 19.4 9 Oeste 21 Oeste 0 -- -- 52
2019-09-23 15:00:00 18.5 8 Sudoeste 22 Oeste 0 -- -- 55
2019-09-23 14:00:00 17.6 6 Oeste 20 Sudoeste 0 -- -- 60
2019-09-23 13:00:00 17.1 6 Sudeste 19 Sudeste 0 -- -- 61
2019-09-23 12:00:00 16.1 8 Sudeste 16 Sudeste 0 -- -- 67
2019-09-23 11:00:00 14.4 10 Sudeste 16 Sudeste 0 -- -- 82
2019-09-23 10:00:00 11.2 6 Sudeste 17 Sudeste 0 -- -- 92
2019-09-23 09:00:00 9.9 10 Sudeste 19 Sudeste 0 -- -- 92
2019-09-23 08:00:00 9.6 9 Sudeste 15 Sudeste 0 -- -- 92
2019-09-23 07:00:00 9.3 5 Sudeste 12 Sudeste 0 -- -- 92
2019-09-23 06:00:00 7.7 0 Calma 7 Oeste 0 -- -- 92
2019-09-23 05:00:00 7.3 3 Este 6 Sudeste 0 -- -- 92
2019-09-23 04:00:00 6.1 0 Calma 4 Noroeste 0 -- -- 90
2019-09-23 03:00:00 7.1 2 Este 5 Nordeste 0 -- -- 89
2019-09-23 02:00:00 8.5 0 Calma 8 Este 0 -- -- 87
2019-09-23 01:00:00 9.9 0 Calma 8 Sudeste 0 -- -- 85
2019-09-23 00:00:00 10.9 6 Sudoeste 14 Sur 0 -- -- 84
2019-09-22 23:00:00 10.8 2 Oeste 22 Oeste 0 -- -- 81
2019-09-22 22:00:00 11.8 5 Oeste 21 Oeste 0 -- -- 74
2019-09-22 21:00:00 13.2 10 Oeste 25 Oeste 0 -- -- 67
2019-09-22 20:00:00 15 11 Oeste 27 Oeste 0 -- -- 60
2019-09-22 19:00:00 17.4 9 Sudoeste 31 Oeste 0 -- -- 52
2019-09-22 18:00:00 18.5 14 Oeste 34 Oeste 0 -- -- 51
2019-09-22 17:00:00 19.3 12 Sudoeste 32 Oeste 0 -- -- 46
2019-09-22 16:00:00 19.4 12 Sudoeste 32 Sudoeste 0 -- -- 46
2019-09-22 15:00:00 19.5 11 Sudoeste 29 Sudoeste 0 -- -- 47
2019-09-22 14:00:00 17.6 9 Oeste 27 Oeste 0 -- -- 52
2019-09-22 13:00:00 17.2 8 Sudoeste 19 Oeste 0 -- -- 56
2019-09-22 12:00:00 15 6 Sudoeste 20 Oeste 0.1 -- -- 69
2019-09-22 11:00:00 13.3 5 Oeste 15 Oeste 0 -- -- 91
2019-09-22 10:00:00 9.5 0 Calma 3 Sudeste 0 -- -- 92
2019-09-22 09:00:00 6.8 0 Calma 5 Sur 0 -- -- 91
2019-09-22 08:00:00 8.3 3 Sur 11 Oeste 0 -- -- 90
2019-09-22 07:00:00 10 3 Oeste 15 Oeste 0 -- -- 90
2019-09-22 06:00:00 11 5 Sudoeste 21 Sudoeste 0 -- -- 90
2019-09-22 05:00:00 11.4 4 Sudoeste 13 Sudoeste 0 -- -- 90
2019-09-22 04:00:00 11.6 7 Sudoeste 25 Noroeste 0 -- -- 90
2019-09-22 03:00:00 11.1 3 Sudoeste 14 Oeste 0 -- -- 90
2019-09-22 02:00:00 10.9 6 Sudeste 17 Sudoeste 0 -- -- 90
2019-09-22 01:00:00 11.1 6 Sur 23 Sudoeste 0 -- -- 90
2019-09-22 00:00:00 10.6 6 Sudoeste 13 Sudoeste 0 -- -- 90